Time;durP1;ratioP1;P1;durP2;ratioP2;P2;SDS_P1;SDS_P2;PMS_P1;PMS_P2;Temp;Humidity;BMP_temperature;BMP_pressure;BME280_temperature;BME280_humidity;BME280_pressure;Samples;Min_cycle;Max_cycle;Signal;HPM_P1;HPM_P2
2021/05/13 00:00:47;;;;;;;5.00;2.90;;;;;;;4.29;100.00;92389.56;2100579;28;20024;-85
2021/05/13 00:01:48;;;;;;;4.30;2.88;;;;;;;4.19;100.00;92390.44;2097341;28;20032;-84
2021/05/13 00:02:49;;;;;;;3.08;2.60;;;;;;;4.20;100.00;92384.00;2100730;28;20039;-85
2021/05/13 00:03:52;;;;;;;3.83;2.92;;;;;;;4.16;100.00;92385.16;2096329;28;20526;-85
2021/05/13 00:04:52;;;;;;;5.10;2.65;;;;;;;4.09;100.00;92385.25;2091943;28;20037;-84
2021/05/13 00:05:53;;;;;;;3.10;2.65;;;;;;;4.12;100.00;92387.09;2112247;28;20032;-85
2021/05/13 00:06:54;;;;;;;4.82;2.90;;;;;;;4.01;100.00;92385.31;2106136;28;20077;-85
2021/05/13 00:07:54;;;;;;;4.72;2.63;;;;;;;3.99;100.00;92389.47;2093483;28;20025;-84
2021/05/13 00:08:56;;;;;;;7.68;2.97;;;;;;;4.00;100.00;92386.44;2090106;28;20060;-85
2021/05/13 00:09:57;;;;;;;3.92;2.65;;;;;;;3.96;100.00;92388.38;2090544;28;20031;-85
2021/05/13 00:11:04;;;;;;;6.88;3.13;;;;;;;3.93;100.00;92386.50;2092918;28;20028;-85
2021/05/13 00:12:13;;;;;;;7.70;3.00;;;;;;;3.95;100.00;92384.25;2098983;28;20073;-86
2021/05/13 00:13:14;;;;;;;9.05;3.00;;;;;;;3.96;100.00;92384.97;2099169;28;20119;-85
2021/05/13 00:14:16;;;;;;;5.43;3.03;;;;;;;3.92;100.00;92389.56;2092069;28;20524;-84
2021/05/13 00:15:38;;;;;;;3.10;2.70;;;;;;;3.84;100.00;92391.50;2099854;28;20082;-85
2021/05/13 00:16:39;;;;;;;4.90;2.90;;;;;;;3.85;100.00;92390.34;2108298;28;20054;-84
2021/05/13 00:17:40;;;;;;;5.78;3.03;;;;;;;3.90;100.00;92382.00;2108975;28;20024;-85
2021/05/13 00:18:40;;;;;;;7.32;3.00;;;;;;;3.85;100.00;92384.31;2111154;28;20061;-85
2021/05/13 00:19:41;;;;;;;6.25;3.45;;;;;;;3.82;100.00;92385.88;2106388;28;20059;-84
2021/05/13 00:20:43;;;;;;;3.33;2.58;;;;;;;3.72;100.00;92386.69;2104027;28;20020;-85
2021/05/13 00:21:45;;;;;;;4.28;3.08;;;;;;;3.76;100.00;92377.56;2086706;28;20052;-85
2021/05/13 00:22:45;;;;;;;5.38;2.70;;;;;;;3.81;100.00;92386.97;2098398;28;20062;-85
2021/05/13 00:23:46;;;;;;;6.13;2.90;;;;;;;3.71;100.00;92387.81;2098740;28;20111;-85
2021/05/13 00:24:47;;;;;;;2.70;2.47;;;;;;;3.69;100.00;92384.84;2098130;28;20028;-84
2021/05/13 00:25:49;;;;;;;4.65;2.72;;;;;;;3.66;100.00;92391.63;2098844;28;20082;-85
2021/05/13 00:26:50;;;;;;;6.60;2.83;;;;;;;3.67;100.00;92389.75;2100958;28;20031;-85
2021/05/13 00:27:51;;;;;;;4.82;2.92;;;;;;;3.67;100.00;92387.84;2090505;28;21019;-85
2021/05/13 00:28:52;;;;;;;8.45;2.97;;;;;;;3.71;100.00;92385.19;2089987;28;20036;-84
2021/05/13 00:29:53;;;;;;;6.32;2.88;;;;;;;3.67;100.00;92393.13;2101078;28;20032;-85
2021/05/13 00:30:53;;;;;;;6.47;2.90;;;;;;;3.63;100.00;92391.66;2098693;28;20020;-85
2021/05/13 00:31:54;;;;;;;5.43;3.00;;;;;;;3.61;100.00;92391.31;2112226;28;20103;-84
2021/05/13 00:32:55;;;;;;;6.30;2.75;;;;;;;3.66;100.00;92386.34;2105892;28;20054;-86
2021/05/13 00:33:59;;;;;;;4.65;2.97;;;;;;;3.67;100.00;92384.47;2099079;28;20025;-85
2021/05/13 00:35:00;;;;;;;6.57;3.15;;;;;;;3.65;100.00;92387.50;2103419;28;20020;-84
2021/05/13 00:36:00;;;;;;;5.30;2.67;;;;;;;3.68;100.00;92391.25;2105502;28;20362;-84
2021/05/13 00:37:01;;;;;;;6.05;3.30;;;;;;;3.66;100.00;92389.00;2102780;28;20020;-84
2021/05/13 00:38:03;;;;;;;4.18;3.17;;;;;;;3.57;100.00;92388.69;2111421;28;20027;-85
2021/05/13 00:39:06;;;;;;;6.70;3.15;;;;;;;3.68;100.00;92383.31;2114909;28;20451;-85
2021/05/13 00:40:08;;;;;;;5.10;2.90;;;;;;;3.64;100.00;92378.06;2103454;28;20362;-84
2021/05/13 00:41:09;;;;;;;4.22;2.78;;;;;;;3.69;100.00;92379.56;2098208;28;20658;-85
2021/05/13 00:42:09;;;;;;;3.85;2.88;;;;;;;3.62;100.00;92379.59;2093290;28;20033;-84
2021/05/13 00:43:10;;;;;;;5.25;3.17;;;;;;;3.63;100.00;92381.84;2093945;28;20497;-84
2021/05/13 00:44:11;;;;;;;6.28;2.90;;;;;;;3.64;100.00;92377.31;2097956;28;20087;-85
2021/05/13 00:45:13;;;;;;;5.35;2.72;;;;;;;3.65;99.88;92382.22;2097890;28;20025;-84
2021/05/13 00:46:14;;;;;;;6.10;2.92;;;;;;;3.64;99.76;92374.66;2093396;28;20020;-85
2021/05/13 00:47:15;;;;;;;5.18;2.63;;;;;;;3.63;99.67;92383.72;2104623;28;20016;-84
2021/05/13 00:48:17;;;;;;;3.72;2.70;;;;;;;3.54;100.00;92378.88;2107398;28;20028;-85
2021/05/13 00:49:20;;;;;;;5.45;2.63;;;;;;;3.54;100.00;92376.25;2104247;28;20028;-84
2021/05/13 00:50:21;;;;;;;4.38;2.92;;;;;;;3.62;100.00;92376.94;2093679;28;20028;-85
2021/05/13 00:51:22;;;;;;;6.20;2.78;;;;;;;3.63;100.00;92376.56;2091690;28;20741;-84
2021/05/13 00:52:24;;;;;;;3.60;3.17;;;;;;;3.67;100.00;92384.47;2106213;28;20081;-84
2021/05/13 00:53:25;;;;;;;3.92;2.70;;;;;;;3.56;100.00;92379.25;2095642;28;20021;-85
2021/05/13 00:54:27;;;;;;;5.57;2.83;;;;;;;3.57;100.00;92378.13;2091890;28;20029;-84
2021/05/13 00:55:28;;;;;;;5.70;3.00;;;;;;;3.61;100.00;92376.19;2097737;28;20032;-85
2021/05/13 00:56:30;;;;;;;4.88;2.88;;;;;;;3.56;100.00;92368.69;2086726;28;20063;-84
2021/05/13 00:57:31;;;;;;;4.30;3.10;;;;;;;3.52;100.00;92371.34;2085608;28;20021;-85
2021/05/13 00:58:36;;;;;;;4.05;2.78;;;;;;;3.53;100.00;92372.84;2114649;27;20039;-85
2021/05/13 00:59:39;;;;;;;4.25;3.00;;;;;;;3.62;100.00;92375.06;2119969;27;20026;-84
2021/05/13 01:01:49;;;;;;;5.45;2.97;;;;;;;3.60;100.00;92364.13;2099379;28;20476;-85
2021/05/13 01:02:50;;;;;;;6.13;2.95;;;;;;;3.57;100.00;92366.81;2093804;28;20055;-85
2021/05/13 01:03:50;;;;;;;3.70;2.83;;;;;;;3.52;100.00;92365.31;2096066;28;20480;-86
2021/05/13 01:04:51;;;;;;;5.80;2.63;;;;;;;3.53;100.00;92374.75;2110754;28;20047;-84
2021/05/13 01:05:52;;;;;;;5.00;2.70;;;;;;;3.59;100.00;92367.16;2106037;28;20028;-84
2021/05/13 01:06:54;;;;;;;3.97;2.92;;;;;;;3.61;100.00;92362.25;2091432;28;20035;-85
2021/05/13 01:08:00;;;;;;;3.55;2.38;;;;;;;3.60;100.00;92368.66;2095671;28;20107;-85
2021/05/13 01:09:00;;;;;;;4.50;2.40;;;;;;;3.56;100.00;92358.13;2090151;28;20021;-84
2021/05/13 01:10:01;;;;;;;5.07;2.60;;;;;;;3.61;100.00;92363.00;2096836;28;20021;-85
2021/05/13 01:11:03;;;;;;;2.85;2.65;;;;;;;3.59;100.00;92367.91;2097625;28;20103;-84
2021/05/13 01:12:09;;;;;;;2.30;2.10;;;;;;;3.64;100.00;92359.56;2105248;28;20051;-84
2021/05/13 01:13:15;;;;;;;4.25;2.30;;;;;;;3.55;100.00;92361.88;2090509;28;20083;-86
2021/05/13 01:14:26;;;;;;;3.53;2.20;;;;;;;3.52;100.00;92368.72;2094806;28;20025;-85
2021/05/13 01:15:38;;;;;;;4.63;2.72;;;;;;;3.57;100.00;92356.97;2100594;28;20126;-85
2021/05/13 01:16:48;;;;;;;3.80;1.95;;;;;;;3.54;100.00;92363.78;2099367;28;20704;-84
2021/05/13 01:18:14;;;;;;;3.50;2.05;;;;;;;3.54;100.00;92365.69;2102820;28;20108;-84
2021/05/13 01:19:16;;;;;;;2.40;2.20;;;;;;;3.48;100.00;92362.72;2102213;28;20114;-85
2021/05/13 01:20:16;;;;;;;3.75;2.13;;;;;;;3.49;100.00;92363.47;2091602;28;20021;-84
2021/05/13 01:21:17;;;;;;;2.25;1.90;;;;;;;3.43;100.00;92360.50;2105497;28;20103;-85
2021/05/13 01:22:20;;;;;;;2.05;1.90;;;;;;;3.46;100.00;92351.75;2101590;28;20114;-85
2021/05/13 01:23:21;;;;;;;2.10;1.70;;;;;;;3.46;100.00;92351.75;2105184;28;20063;-85
2021/05/13 01:24:23;;;;;;;2.05;1.88;;;;;;;3.44;100.00;92354.06;2102696;28;20031;-85
2021/05/13 01:25:25;;;;;;;1.77;1.67;;;;;;;3.41;100.00;92357.47;2108012;28;20028;-85
2021/05/13 01:26:25;;;;;;;2.58;2.10;;;;;;;3.40;100.00;92350.69;2089560;28;20055;-86
2021/05/13 01:27:26;;;;;;;2.70;1.88;;;;;;;3.37;100.00;92351.47;2092755;28;20043;-84
2021/05/13 01:28:28;;;;;;;3.00;1.95;;;;;;;3.31;100.00;92352.28;2096041;28;20031;-84
2021/05/13 01:29:29;;;;;;;2.10;1.90;;;;;;;3.28;100.00;92357.19;2089889;28;20025;-85
2021/05/13 01:30:30;;;;;;;2.40;2.03;;;;;;;3.33;100.00;92352.63;2105160;28;20527;-84
2021/05/13 01:31:31;;;;;;;4.57;1.90;;;;;;;3.31;100.00;92347.75;2099217;28;20028;-85
2021/05/13 01:32:31;;;;;;;3.97;2.15;;;;;;;3.29;100.00;92352.63;2089457;28;20108;-85
2021/05/13 01:33:32;;;;;;;2.20;2.00;;;;;;;3.29;100.00;92355.28;2100806;28;20057;-85
2021/05/13 01:34:33;;;;;;;2.47;2.28;;;;;;;3.28;100.00;92353.78;2100892;28;20082;-85
2021/05/13 01:35:33;;;;;;;3.30;2.15;;;;;;;3.25;100.00;92350.06;2093974;28;20029;-86
2021/05/13 01:36:35;;;;;;;2.63;2.40;;;;;;;3.25;100.00;92352.69;2093099;28;20028;-85
2021/05/13 01:37:35;;;;;;;2.33;1.98;;;;;;;3.24;100.00;92347.78;2097268;28;20023;-84
2021/05/13 01:38:36;;;;;;;3.05;2.40;;;;;;;3.21;100.00;92351.97;2089197;28;20473;-84
2021/05/13 01:39:37;;;;;;;4.32;2.28;;;;;;;3.29;100.00;92352.63;2097446;28;20032;-84
2021/05/13 01:40:39;;;;;;;2.65;2.45;;;;;;;3.21;100.00;92357.25;2105996;28;20024;-85
2021/05/13 01:41:41;;;;;;;2.85;2.25;;;;;;;3.23;100.00;92351.56;2089914;28;20102;-85
2021/05/13 01:42:42;;;;;;;3.15;2.85;;;;;;;3.16;100.00;92352.38;2096004;28;20020;-85
2021/05/13 01:43:42;;;;;;;2.60;2.30;;;;;;;3.26;100.00;92356.81;2097372;28;20069;-85
2021/05/13 01:44:44;;;;;;;4.28;2.28;;;;;;;3.22;100.00;92347.44;2089184;28;20032;-85
2021/05/13 01:45:45;;;;;;;2.72;2.40;;;;;;;3.25;100.00;92354.59;2082069;28;20044;-85
2021/05/13 01:46:46;;;;;;;3.25;2.58;;;;;;;3.27;100.00;92342.47;2097438;28;20052;-85
2021/05/13 01:47:46;;;;;;;4.88;2.45;;;;;;;3.31;100.00;92347.75;2089976;28;20479;-85
2021/05/13 01:48:47;;;;;;;3.22;2.10;;;;;;;3.35;100.00;92350.34;2083183;28;20563;-85
2021/05/13 01:49:49;;;;;;;4.38;2.70;;;;;;;3.30;100.00;92351.53;2098253;28;20056;-85
2021/05/13 01:50:50;;;;;;;2.67;2.10;;;;;;;3.31;100.00;92355.66;2114664;28;20031;-85
2021/05/13 01:51:51;;;;;;;4.07;2.40;;;;;;;3.31;100.00;92345.09;2111382;28;20059;-85
2021/05/13 01:52:51;;;;;;;4.57;2.20;;;;;;;3.34;100.00;92357.53;2097786;28;20488;-86
2021/05/13 01:53:52;;;;;;;5.60;2.60;;;;;;;3.36;100.00;92352.59;2093893;28;20054;-85
2021/05/13 01:54:53;;;;;;;4.63;2.78;;;;;;;3.33;100.00;92349.97;2093239;28;20606;-85
2021/05/13 01:55:53;;;;;;;3.85;2.22;;;;;;;3.38;100.00;92345.06;2108565;28;20031;-85
2021/05/13 01:57:02;;;;;;;3.17;2.30;;;;;;;3.43;100.00;92342.00;2108414;28;20031;-85
2021/05/13 01:58:04;;;;;;;3.92;2.65;;;;;;;3.47;100.00;92349.91;2098828;28;20027;-85
2021/05/13 01:59:04;;;;;;;3.20;2.50;;;;;;;3.45;100.00;92341.59;2092159;28;20027;-85
2021/05/13 02:00:06;;;;;;;4.80;3.05;;;;;;;3.44;100.00;92345.38;2102724;28;20114;-85
2021/05/13 02:01:10;;;;;;;3.13;2.83;;;;;;;3.46;100.00;92341.19;2095161;28;20066;-84
2021/05/13 02:02:13;;;;;;;5.20;2.80;;;;;;;3.47;100.00;92336.69;2103342;28;20024;-84
2021/05/13 02:03:14;;;;;;;2.70;2.50;;;;;;;3.51;100.00;92345.31;2099187;28;20031;-85
2021/05/13 02:04:14;;;;;;;3.55;2.60;;;;;;;3.54;100.00;92342.66;2106658;28;20042;-85
2021/05/13 02:05:20;;;;;;;5.22;2.40;;;;;;;3.51;100.00;92335.53;2097071;28;20044;-84
2021/05/13 02:06:21;;;;;;;2.58;2.25;;;;;;;3.48;100.00;92338.19;2101588;28;20063;-85
2021/05/13 02:07:22;;;;;;;3.70;2.25;;;;;;;3.48;100.00;92333.66;2101097;28;20052;-85
2021/05/13 02:08:22;;;;;;;2.75;2.30;;;;;;;3.43;100.00;92344.63;2093530;28;20025;-85
2021/05/13 02:09:23;;;;;;;2.30;2.15;;;;;;;3.43;100.00;92335.97;2097119;28;20055;-85
2021/05/13 02:10:24;;;;;;;4.50;2.60;;;;;;;3.51;100.00;92332.88;2100825;28;20029;-85
2021/05/13 02:11:25;;;;;;;4.60;2.20;;;;;;;3.49;100.00;92337.03;2099325;28;20039;-85
2021/05/13 02:12:26;;;;;;;4.78;2.38;;;;;;;3.49;100.00;92335.16;2089085;28;20047;-85
2021/05/13 02:13:26;;;;;;;3.67;2.50;;;;;;;3.49;100.00;92329.88;2097321;28;20031;-85
2021/05/13 02:14:27;;;;;;;7.63;2.70;;;;;;;3.54;100.00;92328.69;2093858;28;20025;-85
2021/05/13 02:15:28;;;;;;;4.78;2.65;;;;;;;3.56;100.00;92329.06;2080669;28;20033;-85
2021/05/13 02:16:28;;;;;;;3.38;2.80;;;;;;;3.51;100.00;92337.38;2091271;28;20138;-86
2021/05/13 02:17:29;;;;;;;5.00;2.75;;;;;;;3.54;100.00;92321.50;2113136;28;20102;-85
2021/05/13 02:18:31;;;;;;;4.60;3.05;;;;;;;3.56;100.00;92328.28;2101308;28;20027;-85
2021/05/13 02:19:31;;;;;;;4.13;3.15;;;;;;;3.52;100.00;92323.81;2098547;28;20037;-84
2021/05/13 02:20:33;;;;;;;6.55;3.15;;;;;;;3.52;100.00;92321.16;2097867;28;20048;-85
2021/05/13 02:21:33;;;;;;;7.72;2.90;;;;;;;3.54;100.00;92329.44;2093229;28;20020;-85
2021/05/13 02:22:34;;;;;;;3.78;3.08;;;;;;;3.53;100.00;92321.91;2105695;28;20024;-85
2021/05/13 02:23:35;;;;;;;4.43;3.00;;;;;;;3.56;100.00;92323.78;2105610;28;20020;-86
2021/05/13 02:24:36;;;;;;;3.40;3.05;;;;;;;3.49;100.00;92319.28;2114101;28;20024;-84
2021/05/13 02:25:38;;;;;;;4.53;3.00;;;;;;;3.51;100.00;92327.59;2110446;28;20051;-85
2021/05/13 02:26:39;;;;;;;5.97;3.03;;;;;;;3.53;100.00;92322.66;2107101;28;20115;-85
2021/05/13 02:27:40;;;;;;;8.15;3.33;;;;;;;3.53;100.00;92335.13;2100806;28;20020;-85
2021/05/13 02:28:41;;;;;;;5.78;3.08;;;;;;;3.47;100.00;92326.88;2097355;28;20035;-85
2021/05/13 02:29:42;;;;;;;3.70;2.63;;;;;;;3.50;100.00;92334.00;2104533;28;20024;-84
2021/05/13 02:30:42;;;;;;;3.28;2.70;;;;;;;3.52;100.00;92323.06;2085561;28;20159;-85
2021/05/13 02:31:43;;;;;;;3.58;2.63;;;;;;;3.46;100.00;92319.31;2104772;28;20135;-85
2021/05/13 02:32:44;;;;;;;3.72;2.78;;;;;;;3.45;100.00;92318.56;2098604;28;20032;-85
2021/05/13 02:33:45;;;;;;;4.13;3.05;;;;;;;3.50;100.00;92320.78;2096549;28;20481;-85
2021/05/13 02:34:46;;;;;;;4.00;2.70;;;;;;;3.54;100.00;92318.88;2088867;28;20021;-86
2021/05/13 02:35:46;;;;;;;3.47;2.78;;;;;;;3.53;100.00;92320.00;2083313;28;20028;-85
2021/05/13 02:36:47;;;;;;;5.47;2.67;;;;;;;3.53;100.00;92322.66;2088046;28;20021;-85
2021/05/13 02:37:48;;;;;;;4.03;2.90;;;;;;;3.57;100.00;92324.53;2098028;28;20040;-84
2021/05/13 02:38:48;;;;;;;2.88;2.50;;;;;;;3.65;100.00;92321.44;2101306;28;20054;-86
2021/05/13 02:39:50;;;;;;;4.68;2.50;;;;;;;3.57;100.00;92325.28;2097132;28;20051;-85
2021/05/13 02:40:51;;;;;;;4.15;2.63;;;;;;;3.69;100.00;92329.34;2101726;28;20417;-85
2021/05/13 02:41:51;;;;;;;4.63;2.90;;;;;;;3.66;100.00;92330.13;2099553;28;20024;-85
2021/05/13 02:42:52;;;;;;;3.78;2.58;;;;;;;3.69;100.00;92327.44;2103373;28;20098;-85
2021/05/13 02:43:53;;;;;;;3.30;2.88;;;;;;;3.66;100.00;92330.13;2114004;28;20028;-85
2021/05/13 02:44:53;;;;;;;4.70;2.88;;;;;;;3.70;100.00;92328.19;2101587;28;20024;-85
2021/05/13 02:45:54;;;;;;;4.00;2.80;;;;;;;3.70;100.00;92328.19;2094155;28;20497;-85
2021/05/13 02:46:55;;;;;;;3.42;2.10;;;;;;;3.71;100.00;92322.50;2092599;28;20029;-85
2021/05/13 02:47:58;;;;;;;5.03;2.70;;;;;;;3.68;100.00;92336.50;2089626;28;20025;-85
2021/05/13 02:48:59;;;;;;;3.65;2.50;;;;;;;3.65;100.00;92321.44;2084047;28;20513;-86
2021/05/13 02:50:00;;;;;;;3.42;2.38;;;;;;;3.67;100.00;92328.97;2088931;28;20025;-85
2021/05/13 02:51:00;;;;;;;6.80;2.67;;;;;;;3.70;100.00;92328.19;2099551;28;20031;-85
2021/05/13 02:52:01;;;;;;;3.33;2.40;;;;;;;3.70;100.00;92325.53;2104435;28;20373;-85
2021/05/13 02:53:02;;;;;;;5.25;2.50;;;;;;;3.59;100.00;92327.53;2091375;28;20021;-85
2021/05/13 02:54:03;;;;;;;4.18;2.50;;;;;;;3.68;100.00;92325.91;2098492;28;20024;-85
2021/05/13 02:55:06;;;;;;;4.07;2.50;;;;;;;3.62;100.00;92326.75;2106936;28;20111;-85
2021/05/13 02:56:06;;;;;;;4.68;2.53;;;;;;;3.72;100.00;92325.91;2106185;28;20028;-84
2021/05/13 02:57:07;;;;;;;3.00;2.30;;;;;;;3.72;100.00;92323.25;2113681;28;20026;-86
2021/05/13 02:58:08;;;;;;;4.30;2.45;;;;;;;3.81;100.00;92320.16;2089116;28;20055;-85
2021/05/13 02:59:10;;;;;;;5.75;2.60;;;;;;;3.67;100.00;92324.44;2097281;28;20029;-85
2021/05/13 03:01:31;;;;;;;3.00;2.70;;;;;;;3.69;100.00;92316.88;2109541;28;20031;-85
2021/05/13 03:02:32;;;;;;;5.53;2.60;;;;;;;3.67;100.00;92326.31;2115166;28;20120;-84
2021/05/13 03:03:33;;;;;;;4.50;2.58;;;;;;;3.63;100.00;92318.41;2103852;28;20035;-86
2021/05/13 03:04:33;;;;;;;4.53;2.83;;;;;;;3.63;100.00;92323.69;2100323;28;20024;-85
2021/05/13 03:05:34;;;;;;;4.65;2.75;;;;;;;3.65;100.00;92321.44;2098779;28;20031;-85
2021/05/13 03:06:37;;;;;;;7.40;2.78;;;;;;;3.65;100.00;92312.75;2087615;28;20473;-85
2021/05/13 03:07:49;;;;;;;3.70;2.60;;;;;;;3.67;100.00;92324.44;2086375;28;20117;-85
2021/05/13 03:08:53;;;;;;;4.35;2.70;;;;;;;3.69;100.00;92322.16;2095530;28;20115;-84
2021/05/13 03:09:58;;;;;;;3.47;2.75;;;;;;;3.69;100.00;92322.16;2090425;28;20025;-85
2021/05/13 03:10:58;;;;;;;6.60;3.17;;;;;;;3.67;100.00;92315.75;2103417;28;20527;-84
2021/05/13 03:11:59;;;;;;;4.47;3.00;;;;;;;3.62;100.00;92314.28;2106017;28;20028;-84
2021/05/13 03:13:01;;;;;;;5.30;2.85;;;;;;;3.65;100.00;92316.16;2107132;28;20115;-85
2021/05/13 03:14:03;;;;;;;5.30;3.25;;;;;;;3.60;100.00;92307.88;2102979;28;20028;-85
2021/05/13 03:15:05;;;;;;;4.75;3.17;;;;;;;3.60;100.00;92315.81;2109121;28;20444;-85
2021/05/13 03:16:06;;;;;;;3.53;2.90;;;;;;;3.63;100.00;92302.56;2109544;28;20064;-85
2021/05/13 03:17:07;;;;;;;7.43;3.25;;;;;;;3.69;100.00;92310.84;2099737;28;20078;-85
2021/05/13 03:18:08;;;;;;;2.75;2.45;;;;;;;3.71;100.00;92303.25;2103690;28;20028;-84
2021/05/13 03:19:18;;;;;;;5.45;3.10;;;;;;;3.67;100.00;92305.94;2099180;28;20032;-85
2021/05/13 03:20:24;;;;;;;3.65;2.70;;;;;;;3.69;100.00;92300.28;2101016;28;20032;-84
2021/05/13 03:21:30;;;;;;;4.53;2.80;;;;;;;3.68;100.00;92301.38;2107599;28;20031;-85
2021/05/13 03:22:31;;;;;;;5.30;2.65;;;;;;;3.73;100.00;92309.66;2107734;28;20107;-85
2021/05/13 03:24:18;;;;;;;3.85;2.47;;;;;;;3.77;100.00;92304.31;2098454;28;20493;-85
2021/05/13 03:25:05;;;;;;;5.28;2.83;;;;;;;3.75;100.00;92291.50;2097776;28;20102;-85
2021/05/13 03:26:06;;;;;;;3.97;2.85;;;;;;;3.77;100.00;92299.03;2095639;28;20052;-85
2021/05/13 03:27:37;;;;;;;7.18;3.17;;;;;;;3.71;100.00;92301.34;2091376;28;20024;-85
2021/05/13 03:28:36;;;;;;;4.05;2.70;;;;;;;3.76;100.00;92303.56;2101956;28;20038;-84
2021/05/13 03:29:37;;;;;;;4.85;2.80;;;;;;;3.74;100.00;92297.94;2102185;28;20447;-85
2021/05/13 03:30:41;;;;;;;3.85;2.80;;;;;;;3.75;100.00;92298.69;2092547;28;20029;-84
2021/05/13 03:31:42;;;;;;;4.45;2.55;;;;;;;3.73;100.00;92301.72;2104146;28;20031;-84
2021/05/13 03:32:43;;;;;;;3.85;2.72;;;;;;;3.77;100.00;92299.78;2096981;28;20055;-85
2021/05/13 03:33:43;;;;;;;6.10;2.72;;;;;;;3.82;100.00;92296.00;2087618;28;20047;-85
2021/05/13 03:34:44;;;;;;;7.38;3.00;;;;;;;3.82;100.00;92300.50;2101957;28;20101;-84
2021/05/13 03:35:45;;;;;;;4.53;2.70;;;;;;;3.72;100.00;92299.47;2111911;28;20035;-85
2021/05/13 03:36:45;;;;;;;6.43;3.00;;;;;;;3.77;100.00;92291.09;2093502;28;20016;-87
2021/05/13 03:37:46;;;;;;;4.38;2.60;;;;;;;3.77;100.00;92297.13;2096958;28;20103;-85
2021/05/13 03:38:47;;;;;;;4.00;2.30;;;;;;;3.79;100.00;92294.88;2104655;28;20070;-84
2021/05/13 03:39:47;;;;;;;6.60;2.67;;;;;;;3.77;100.00;92296.41;2091901;28;20036;-84
2021/05/13 03:40:48;;;;;;;4.15;2.75;;;;;;;3.78;100.00;92293.38;2095450;28;20039;-85
2021/05/13 03:41:49;;;;;;;5.47;2.60;;;;;;;3.88;100.00;92291.75;2110361;28;20059;-84
2021/05/13 03:42:50;;;;;;;6.45;2.58;;;;;;;3.78;100.00;92296.03;2106801;28;20020;-84
2021/05/13 03:43:50;;;;;;;5.47;2.42;;;;;;;3.85;100.00;92297.09;2106584;28;20028;-85
2021/05/13 03:44:51;;;;;;;3.25;2.58;;;;;;;3.83;100.00;92284.28;2104592;28;20451;-85
2021/05/13 03:45:52;;;;;;;3.28;2.50;;;;;;;3.84;100.00;92293.69;2090152;28;20028;-85
2021/05/13 03:46:53;;;;;;;4.22;2.92;;;;;;;3.84;100.00;92287.66;2096036;28;20573;-85
2021/05/13 03:47:54;;;;;;;3.20;2.55;;;;;;;3.87;100.00;92289.53;2098441;28;20020;-85
2021/05/13 03:48:54;;;;;;;4.80;2.60;;;;;;;3.85;100.00;92283.88;2094666;28;20124;-85
2021/05/13 03:49:55;;;;;;;5.57;2.60;;;;;;;3.86;100.00;92294.03;2106554;28;20032;-84
2021/05/13 03:50:56;;;;;;;5.03;2.85;;;;;;;3.84;100.00;92283.13;2102985;28;20028;-85
2021/05/13 03:51:56;;;;;;;3.33;2.30;;;;;;;3.90;100.00;92283.44;2114307;28;20065;-85
2021/05/13 03:52:57;;;;;;;5.82;2.42;;;;;;;3.87;100.00;92279.69;2108598;28;20056;-85
2021/05/13 03:53:58;;;;;;;4.20;2.90;;;;;;;3.79;100.00;92276.38;2102098;28;20419;-84
2021/05/13 03:54:59;;;;;;;3.42;2.53;;;;;;;3.92;100.00;92281.16;2099943;28;20103;-84
2021/05/13 03:55:59;;;;;;;3.40;2.25;;;;;;;3.85;100.00;92274.03;2091305;28;20455;-84
2021/05/13 03:57:00;;;;;;;3.55;2.20;;;;;;;3.87;100.00;92279.69;2094329;28;20063;-86
2021/05/13 03:58:04;;;;;;;3.92;2.70;;;;;;;3.85;100.00;92271.41;2098146;28;20488;-86
2021/05/13 03:59:11;;;;;;;3.50;2.70;;;;;;;3.81;100.00;92281.25;2098822;28;20020;-85
2021/05/13 04:00:14;;;;;;;3.05;2.65;;;;;;;3.72;100.00;92287.00;2098963;28;20585;-84
2021/05/13 04:01:31;;;;;;;4.82;3.60;;;;;;;3.74;100.00;92276.81;2101456;27;20028;-84
2021/05/13 04:02:35;;;;;;;3.85;2.50;;;;;;;3.78;100.00;92274.88;2104554;28;20618;-85
2021/05/13 04:03:35;;;;;;;2.95;2.72;;;;;;;3.81;100.00;92273.31;2107417;27;20531;-84
2021/05/13 04:04:37;;;;;;;3.97;2.63;;;;;;;3.82;100.00;92271.44;2115397;27;20019;-85
2021/05/13 04:05:38;;;;;;;3.63;2.75;;;;;;;3.78;100.00;92277.53;2101974;28;20234;-86
2021/05/13 04:06:39;;;;;;;4.35;2.58;;;;;;;3.72;100.00;92276.44;2094013;28;20384;-85
2021/05/13 04:07:40;;;;;;;2.97;2.53;;;;;;;3.75;100.00;92277.56;2097945;28;20373;-84
2021/05/13 04:08:41;;;;;;;3.13;2.47;;;;;;;3.73;100.00;92277.94;2098171;28;20032;-84
2021/05/13 04:09:41;;;;;;;4.18;2.53;;;;;;;3.65;100.00;92278.41;2113340;28;20216;-85
2021/05/13 04:10:43;;;;;;;4.53;2.45;;;;;;;3.70;100.00;92275.34;2109623;28;20027;-85
2021/05/13 04:11:43;;;;;;;2.60;2.30;;;;;;;3.72;100.00;92263.22;2109986;28;20019;-85
2021/05/13 04:12:44;;;;;;;4.40;2.70;;;;;;;3.88;100.00;92273.25;2094039;28;20021;-86
2021/05/13 04:13:45;;;;;;;3.05;2.63;;;;;;;3.85;100.00;92278.56;2103774;28;20020;-85
2021/05/13 04:14:46;;;;;;;4.47;2.50;;;;;;;3.82;100.00;92272.19;2111365;28;20040;-86
2021/05/13 04:15:47;;;;;;;5.95;2.40;;;;;;;3.78;100.00;92276.78;2102193;28;20531;-84
2021/05/13 04:16:56;;;;;;;3.08;2.70;;;;;;;3.78;100.00;92279.41;2105089;28;20043;-86
2021/05/13 04:17:57;;;;;;;3.80;2.50;;;;;;;3.80;100.00;92271.81;2097098;28;20397;-85
2021/05/13 04:18:57;;;;;;;3.40;2.45;;;;;;;3.79;100.00;92278.25;2109158;28;20031;-87
2021/05/13 04:19:58;;;;;;;3.47;2.40;;;;;;;3.78;100.00;92271.47;2116262;27;20449;-85
2021/05/13 04:20:59;;;;;;;3.13;2.28;;;;;;;3.79;100.00;92273.72;2101710;28;20024;-85
2021/05/13 04:22:01;;;;;;;4.43;2.53;;;;;;;3.74;100.00;92276.81;2100559;28;20025;-85
2021/05/13 04:23:02;;;;;;;3.42;2.33;;;;;;;3.81;100.00;92269.94;2103531;28;20082;-85
2021/05/13 04:24:03;;;;;;;3.63;2.42;;;;;;;3.76;100.00;92279.78;2097967;28;20028;-85
2021/05/13 04:25:04;;;;;;;4.93;2.58;;;;;;;3.74;100.00;92279.44;2097806;28;20020;-84
2021/05/13 04:26:05;;;;;;;2.55;2.30;;;;;;;3.86;100.00;92280.81;2097631;28;20126;-88
2021/05/13 04:27:06;;;;;;;2.80;2.50;;;;;;;3.92;100.00;92279.25;2093828;28;20032;-85
2021/05/13 04:28:07;;;;;;;3.10;2.45;;;;;;;3.75;100.00;92280.19;2097820;28;20564;-85
2021/05/13 04:29:08;;;;;;;5.55;2.40;;;;;;;3.85;100.00;92283.88;2097210;28;20090;-86
2021/05/13 04:30:09;;;;;;;2.78;2.38;;;;;;;3.80;100.00;92274.47;2098278;28;20016;-86
2021/05/13 04:31:10;;;;;;;3.25;2.58;;;;;;;3.83;100.00;92278.22;2109220;28;20027;-85
2021/05/13 04:32:11;;;;;;;3.38;2.50;;;;;;;3.88;100.00;92275.16;2106340;28;20047;-85
2021/05/13 04:33:12;;;;;;;3.38;3.08;;;;;;;3.92;100.00;92270.59;2081880;28;20029;-85
2021/05/13 04:34:13;;;;;;;4.47;2.58;;;;;;;3.90;100.00;92278.16;2090217;28;20032;-85
2021/05/13 04:35:14;;;;;;;3.45;2.30;;;;;;;3.96;100.00;92273.94;2098027;28;20106;-85
2021/05/13 04:36:15;;;;;;;4.55;2.28;;;;;;;3.98;100.00;92274.28;2114728;28;20055;-85
2021/05/13 04:37:16;;;;;;;3.00;2.33;;;;;;;3.99;100.00;92273.13;2111076;28;20362;-85
2021/05/13 04:38:18;;;;;;;2.42;2.22;;;;;;;3.86;100.00;92272.88;2089924;28;20066;-85
2021/05/13 04:39:19;;;;;;;2.88;2.38;;;;;;;3.88;100.00;92270.63;2090099;28;20024;-85
2021/05/13 04:40:19;;;;;;;3.70;2.70;;;;;;;4.00;100.00;92264.81;2097874;28;20016;-85
2021/05/13 04:41:21;;;;;;;2.83;2.58;;;;;;;4.08;100.00;92268.13;2097555;28;20024;-85
2021/05/13 04:42:21;;;;;;;3.65;2.83;;;;;;;4.11;100.00;92269.25;2098057;28;20032;-84
2021/05/13 04:43:22;;;;;;;4.68;2.60;;;;;;;4.17;100.00;92271.06;2114741;28;20031;-85
2021/05/13 04:44:23;;;;;;;2.70;2.35;;;;;;;4.29;100.00;92261.84;2096087;28;20024;-84
2021/05/13 04:45:24;;;;;;;3.58;2.53;;;;;;;4.27;100.00;92264.91;2084226;28;20028;-85
2021/05/13 04:46:28;;;;;;;5.70;2.90;;;;;;;4.28;100.00;92266.38;2091513;28;20036;-85
2021/05/13 04:47:51;;;;;;;6.05;2.63;;;;;;;4.29;100.00;92272.44;2104030;28;20043;-84
2021/05/13 04:49:54;;;;;;;3.70;2.47;;;;;;;4.29;100.00;92272.44;2092278;28;20064;-85
2021/05/13 04:50:56;;;;;;;4.00;2.50;;;;;;;4.31;100.00;92267.50;2112455;28;20035;-85
2021/05/13 04:51:57;;;;;;;4.07;2.65;;;;;;;4.36;100.00;92266.31;2103494;28;20046;-85
2021/05/13 04:53:00;;;;;;;2.83;2.40;;;;;;;4.43;100.00;92271.50;2103101;28;20028;-84
2021/05/13 04:54:03;;;;;;;2.30;2.10;;;;;;;4.43;100.00;92277.53;2098072;28;20066;-86
2021/05/13 04:55:05;;;;;;;3.60;2.22;;;;;;;4.35;100.00;92265.56;2089593;28;20033;-86
2021/05/13 04:56:06;;;;;;;9.63;2.65;;;;;;;4.40;100.00;92272.31;2106443;28;20020;-85